Time;durP1;ratioP1;P1;durP2;ratioP2;P2;SDS_P1;SDS_P2;PMS_P1;PMS_P2;Temp;Humidity;BMP_temperature;BMP_pressure;BME280_temperature;BME280_humidity;BME280_pressure;Samples;Min_cycle;Max_cycle;Signal;HPM_P1;HPM_P2
2023/04/23 00:00:51;;;;;;;16.98;15.57;;;11.40;99.90;;;;;;5066850;28;20461;-70
2023/04/23 00:03:18;;;;;;;15.90;14.60;;;11.40;99.90;;;;;;5054414;28;20450;-67
2023/04/23 00:05:49;;;;;;;16.38;15.02;;;11.30;99.90;;;;;;5069539;28;20423;-67
2023/04/23 00:08:18;;;;;;;16.77;15.38;;;11.30;99.90;;;;;;5071200;28;20515;-68
2023/04/23 00:10:45;;;;;;;16.33;15.02;;;11.30;99.90;;;;;;5056980;28;20689;-68
2023/04/23 00:13:13;;;;;;;16.92;15.50;;;11.40;99.90;;;;;;5057264;28;20872;-69
2023/04/23 00:15:40;;;;;;;16.45;15.15;;;11.40;99.90;;;;;;5062307;28;20519;-69
2023/04/23 00:18:07;;;;;;;16.70;15.40;;;11.30;99.90;;;;;;5061652;28;20428;-69
2023/04/23 00:20:34;;;;;;;16.50;15.20;;;11.40;99.90;;;;;;5060402;28;20506;-68
2023/04/23 00:23:02;;;;;;;17.02;15.63;;;11.30;99.90;;;;;;5054233;28;20439;-68
2023/04/23 00:25:29;;;;;;;16.35;15.05;;;11.30;99.90;;;;;;5063687;28;20440;-69
2023/04/23 00:27:56;;;;;;;17.10;15.70;;;11.40;99.90;;;;;;5052205;28;20456;-69
2023/04/23 00:30:22;;;;;;;16.48;15.18;;;11.40;99.90;;;;;;5064103;28;20738;-69
2023/04/23 00:32:49;;;;;;;16.90;15.40;;;11.40;99.90;;;;;;5054694;28;20419;-70
2023/04/23 00:35:17;;;;;;;17.63;16.10;;;11.40;99.90;;;;;;5055044;28;20512;-69
2023/04/23 00:37:44;;;;;;;17.42;15.93;;;11.40;99.90;;;;;;5061577;28;20733;-69
2023/04/23 00:40:12;;;;;;;17.85;16.35;;;11.40;99.90;;;;;;5058045;28;20439;-69
2023/04/23 00:42:40;;;;;;;18.17;16.67;;;11.50;99.90;;;;;;5059699;28;20539;-69
2023/04/23 00:45:08;;;;;;;19.10;17.60;;;11.40;99.90;;;;;;5065907;28;20447;-67
2023/04/23 00:47:35;;;;;;;18.23;16.67;;;11.40;99.90;;;;;;5069093;28;20758;-69
2023/04/23 00:50:03;;;;;;;18.80;17.20;;;11.40;99.90;;;;;;5057022;28;20414;-69
2023/04/23 00:52:30;;;;;;;18.10;16.60;;;11.40;99.90;;;;;;5071143;28;20427;-68
2023/04/23 00:54:57;;;;;;;18.50;17.00;;;11.40;99.90;;;;;;5063317;28;20465;-68
2023/04/23 00:57:25;;;;;;;18.80;17.30;;;11.30;99.90;;;;;;5069635;28;20429;-69
2023/04/23 00:59:53;;;;;;;18.65;17.00;;;11.30;99.90;;;;;;5054621;28;20525;-68
2023/04/23 01:02:20;;;;;;;19.13;17.52;;;11.30;99.90;;;;;;5055481;28;20636;-68
2023/04/23 01:04:50;;;;;;;18.98;17.38;;;11.30;99.90;;;;;;5061434;28;20430;-68
2023/04/23 01:07:17;;;;;;;18.83;17.33;;;11.40;99.90;;;;;;5064401;28;20437;-68
2023/04/23 01:09:44;;;;;;;20.45;18.75;;;11.40;99.90;;;;;;5058295;28;20431;-68
2023/04/23 01:12:11;;;;;;;19.17;17.58;;;11.30;99.90;;;;;;5057904;28;20913;-67
2023/04/23 01:14:39;;;;;;;19.60;17.90;;;11.30;99.90;;;;;;5074449;28;20439;-67
2023/04/23 01:17:07;;;;;;;19.30;17.70;;;11.30;99.90;;;;;;5066211;28;20434;-68
2023/04/23 01:19:34;;;;;;;19.40;17.90;;;11.30;99.90;;;;;;5067121;28;20444;-68
2023/04/23 01:22:01;;;;;;;19.67;17.97;;;11.30;99.90;;;;;;5064765;28;20435;-68
2023/04/23 01:24:30;;;;;;;20.17;18.58;;;11.30;99.90;;;;;;5069220;28;20435;-67
2023/04/23 01:26:57;;;;;;;19.35;17.75;;;11.30;99.90;;;;;;5071400;28;20431;-68
2023/04/23 01:29:25;;;;;;;20.33;18.63;;;11.30;99.90;;;;;;5074135;28;20469;-67
2023/04/23 01:31:52;;;;;;;19.73;18.13;;;11.20;99.90;;;;;;5071087;28;20870;-69
2023/04/23 01:34:21;;;;;;;19.70;18.10;;;11.20;99.90;;;;;;5064856;28;20511;-69
2023/04/23 01:36:48;;;;;;;20.55;18.80;;;11.20;99.90;;;;;;5071807;28;20420;-67
2023/04/23 01:39:15;;;;;;;19.60;17.90;;;11.20;99.90;;;;;;5068174;28;20990;-68
2023/04/23 01:41:44;;;;;;;19.75;18.15;;;11.20;99.90;;;;;;5067425;28;20730;-67
2023/04/23 01:44:13;;;;;;;20.20;18.50;;;11.10;99.90;;;;;;5070184;28;20467;-68
2023/04/23 01:46:40;;;;;;;20.55;18.75;;;11.20;99.90;;;;;;5072034;28;20474;-67
2023/04/23 01:49:07;;;;;;;21.20;19.40;;;11.20;99.90;;;;;;5057840;28;20535;-68
2023/04/23 01:51:34;;;;;;;21.00;19.30;;;11.10;99.90;;;;;;5076888;28;20777;-67
2023/04/23 01:54:01;;;;;;;21.48;19.67;;;11.10;99.90;;;;;;5064062;28;20431;-69
2023/04/23 01:56:29;;;;;;;21.30;19.58;;;11.10;99.90;;;;;;5075464;28;20866;-68
2023/04/23 01:58:57;;;;;;;21.73;19.92;;;11.10;99.90;;;;;;5071821;28;20947;-67
2023/04/23 02:01:24;;;;;;;22.55;20.55;;;11.10;99.90;;;;;;5073125;28;20454;-68
2023/04/23 02:03:51;;;;;;;21.67;19.83;;;11.10;99.90;;;;;;5065301;28;20462;-68
2023/04/23 02:06:18;;;;;;;22.85;20.85;;;11.10;99.90;;;;;;5063910;28;20497;-68
2023/04/23 02:08:45;;;;;;;23.80;21.80;;;11.00;99.90;;;;;;5065420;28;20438;-68
2023/04/23 02:11:11;;;;;;;23.20;21.30;;;11.00;99.90;;;;;;5071141;28;20444;-68
2023/04/23 02:13:38;;;;;;;23.77;21.67;;;11.00;99.90;;;;;;5065417;28;20507;-68
2023/04/23 02:16:07;;;;;;;22.58;20.67;;;11.00;99.90;;;;;;5057938;28;20542;-68
2023/04/23 02:18:34;;;;;;;23.70;21.70;;;11.00;99.90;;;;;;5063180;28;20417;-69
2023/04/23 02:21:00;;;;;;;24.52;22.42;;;11.00;99.90;;;;;;5066259;28;20434;-68
2023/04/23 02:23:27;;;;;;;23.77;21.77;;;10.90;99.90;;;;;;5065380;28;20429;-70
2023/04/23 02:25:54;;;;;;;25.52;23.33;;;10.80;99.90;;;;;;5070939;28;20534;-69
2023/04/23 02:28:21;;;;;;;23.88;21.88;;;10.80;99.90;;;;;;5065454;28;20591;-68
2023/04/23 02:30:47;;;;;;;25.75;23.65;;;10.70;99.90;;;;;;5078014;28;20442;-70
2023/04/23 02:33:15;;;;;;;25.63;23.43;;;10.70;99.90;;;;;;5065629;28;20411;-68
2023/04/23 02:35:42;;;;;;;26.08;23.77;;;10.60;99.90;;;;;;5063062;28;20918;-68
2023/04/23 02:38:09;;;;;;;26.27;23.98;;;10.60;99.90;;;;;;5063422;28;20427;-68
2023/04/23 02:40:36;;;;;;;27.42;25.02;;;10.50;99.90;;;;;;5070942;28;20734;-69
2023/04/23 02:43:02;;;;;;;26.67;24.27;;;10.50;99.90;;;;;;5065329;28;20419;-69
2023/04/23 02:45:29;;;;;;;27.55;25.15;;;10.50;99.90;;;;;;5062268;28;20431;-69
2023/04/23 02:47:56;;;;;;;27.23;24.83;;;10.50;99.90;;;;;;5062218;28;20449;-69
2023/04/23 02:50:24;;;;;;;27.70;25.25;;;10.40;99.90;;;;;;5057259;28;20562;-69
2023/04/23 02:52:51;;;;;;;28.17;25.52;;;10.40;99.90;;;;;;5074519;28;20518;-69
2023/04/23 02:55:18;;;;;;;28.50;25.75;;;10.40;99.90;;;;;;5061853;28;20454;-68
2023/04/23 02:57:45;;;;;;;29.33;26.75;;;10.40;99.90;;;;;;5070370;28;20502;-67
2023/04/23 03:00:13;;;;;;;29.08;26.38;;;10.30;99.90;;;;;;5059380;28;20460;-68
2023/04/23 03:02:40;;;;;;;29.77;26.98;;;10.30;99.90;;;;;;5064147;28;20490;-68
2023/04/23 03:05:08;;;;;;;30.23;27.52;;;10.30;99.90;;;;;;5060507;28;20512;-67
2023/04/23 03:07:36;;;;;;;30.48;27.77;;;10.30;99.90;;;;;;5057717;28;20431;-69
2023/04/23 03:10:04;;;;;;;29.98;27.27;;;10.30;99.90;;;;;;5074525;28;20425;-69
2023/04/23 03:12:31;;;;;;;30.67;27.77;;;10.30;99.90;;;;;;5061271;28;20428;-68
2023/04/23 03:14:57;;;;;;;30.83;28.02;;;10.30;99.90;;;;;;5070609;28;20439;-68
2023/04/23 03:17:24;;;;;;;30.67;27.95;;;10.30;99.90;;;;;;5072033;28;20448;-68
2023/04/23 03:19:51;;;;;;;32.03;29.03;;;10.30;99.90;;;;;;5073697;28;20433;-70
2023/04/23 03:22:18;;;;;;;32.25;29.30;;;10.30;99.90;;;;;;5084578;28;20493;-68
2023/04/23 03:24:46;;;;;;;32.55;29.45;;;10.30;99.90;;;;;;5065330;28;20439;-68
2023/04/23 03:27:12;;;;;;;32.75;29.75;;;10.30;99.90;;;;;;5061392;28;20867;-68
2023/04/23 03:29:40;;;;;;;33.40;30.40;;;10.20;99.90;;;;;;5067458;28;20445;-68
2023/04/23 03:32:06;;;;;;;33.00;29.90;;;10.20;99.90;;;;;;5064280;28;20436;-68
2023/04/23 03:34:33;;;;;;;34.10;31.00;;;10.20;99.90;;;;;;5060139;28;20428;-68
2023/04/23 03:37:00;;;;;;;34.88;31.52;;;10.20;99.90;;;;;;5069054;28;20777;-68
2023/04/23 03:39:26;;;;;;;34.20;31.10;;;10.20;99.90;;;;;;5068087;28;20427;-68
2023/04/23 03:41:54;;;;;;;35.17;31.88;;;10.20;99.90;;;;;;5064873;28;20501;-68
2023/04/23 03:44:21;;;;;;;34.88;31.48;;;10.20;99.90;;;;;;5067913;28;20500;-67
2023/04/23 03:46:48;;;;;;;35.67;32.40;;;10.20;99.90;;;;;;5064436;28;20451;-68
2023/04/23 03:49:15;;;;;;;35.08;31.88;;;10.20;99.90;;;;;;5064914;28;20534;-67
2023/04/23 03:51:42;;;;;;;35.47;32.08;;;10.30;99.90;;;;;;5064119;28;20535;-67
2023/04/23 03:54:09;;;;;;;34.83;31.55;;;10.30;99.90;;;;;;5070351;28;20911;-68
2023/04/23 03:56:36;;;;;;;35.35;31.95;;;10.30;99.90;;;;;;5070220;28;20806;-67
2023/04/23 03:59:04;;;;;;;34.70;31.40;;;10.30;99.90;;;;;;5072961;28;20884;-68
2023/04/23 04:01:31;;;;;;;34.05;30.95;;;10.40;99.90;;;;;;5053598;28;20427;-68
2023/04/23 04:03:58;;;;;;;36.08;32.67;;;10.40;99.90;;;;;;5067534;28;20457;-67
2023/04/23 04:06:25;;;;;;;35.15;31.95;;;10.50;99.90;;;;;;5062717;28;20441;-68
2023/04/23 04:08:52;;;;;;;32.78;29.67;;;10.50;99.90;;;;;;5067992;28;20439;-68
2023/04/23 04:11:18;;;;;;;33.03;30.02;;;10.50;99.90;;;;;;5070078;28;20427;-68
2023/04/23 04:13:45;;;;;;;34.97;31.58;;;10.50;99.90;;;;;;5073573;28;20454;-68
2023/04/23 04:16:13;;;;;;;33.63;30.52;;;10.50;99.90;;;;;;5058951;28;20698;-68
2023/04/23 04:18:40;;;;;;;33.40;30.20;;;10.60;99.90;;;;;;5066407;28;20523;-68
2023/04/23 04:21:07;;;;;;;33.05;29.75;;;10.50;99.90;;;;;;5064853;28;20547;-68
2023/04/23 04:23:34;;;;;;;33.35;30.25;;;10.60;99.90;;;;;;5070384;28;20409;-68
2023/04/23 04:26:01;;;;;;;30.70;27.90;;;10.60;99.90;;;;;;5068470;28;20447;-69
2023/04/23 04:28:28;;;;;;;31.73;28.80;;;10.60;99.90;;;;;;5048459;28;20439;-70
2023/04/23 04:30:56;;;;;;;31.75;28.75;;;10.60;99.90;;;;;;5064782;28;20458;-67
2023/04/23 04:33:25;;;;;;;30.90;28.10;;;10.60;99.90;;;;;;5062105;28;20549;-70
2023/04/23 04:35:53;;;;;;;29.92;27.13;;;10.60;99.90;;;;;;5066391;28;20906;-68
2023/04/23 04:38:20;;;;;;;29.60;26.90;;;10.70;99.90;;;;;;5053565;28;20753;-68
2023/04/23 04:40:48;;;;;;;27.63;25.08;;;10.70;99.90;;;;;;5061851;28;20450;-68
2023/04/23 04:43:15;;;;;;;27.60;25.20;;;10.70;99.90;;;;;;5065519;28;20470;-68
2023/04/23 04:45:43;;;;;;;27.30;25.00;;;10.70;99.90;;;;;;5056637;28;20517;-68
2023/04/23 04:48:10;;;;;;;26.50;24.20;;;10.80;99.90;;;;;;5067121;28;20523;-70
2023/04/23 04:50:38;;;;;;;26.25;23.95;;;10.80;99.90;;;;;;5059337;28;20438;-71
2023/04/23 04:53:05;;;;;;;26.40;24.10;;;10.80;99.90;;;;;;5072661;28;20429;-71
2023/04/23 04:55:31;;;;;;;26.55;24.25;;;10.80;99.90;;;;;;5069516;28;20432;-71
2023/04/23 04:57:58;;;;;;;26.42;24.05;;;10.90;99.90;;;;;;5070172;28;20908;-70
2023/04/23 05:00:28;;;;;;;26.00;23.67;;;10.90;99.90;;;;;;5063512;28;20441;-70
2023/04/23 05:02:55;;;;;;;25.90;23.70;;;10.90;99.90;;;;;;5062021;28;20428;-70
2023/04/23 05:05:23;;;;;;;25.10;22.90;;;10.90;99.90;;;;;;5060908;28;20462;-70
2023/04/23 05:07:53;;;;;;;25.38;23.20;;;10.90;99.90;;;;;;5067526;28;20419;-70
2023/04/23 05:10:20;;;;;;;24.75;22.65;;;11.00;99.90;;;;;;5074313;28;20448;-70
2023/04/23 05:12:47;;;;;;;23.47;21.27;;;11.00;99.90;;;;;;5065799;28;20435;-71
2023/04/23 05:15:14;;;;;;;24.08;21.98;;;11.10;99.90;;;;;;5073309;28;20435;-71
2023/04/23 05:17:41;;;;;;;23.58;21.48;;;11.10;99.90;;;;;;5073508;28;20438;-71
2023/04/23 05:20:09;;;;;;;23.45;21.50;;;11.10;99.90;;;;;;5067348;28;20464;-71
2023/04/23 05:22:37;;;;;;;22.45;20.45;;;11.20;99.90;;;;;;5065981;28;20438;-71
2023/04/23 05:25:06;;;;;;;21.48;19.67;;;11.20;99.90;;;;;;5078442;28;20894;-71
2023/04/23 05:27:33;;;;;;;22.02;20.20;;;11.20;99.90;;;;;;5060309;28;20413;-71
2023/04/23 05:30:00;;;;;;;21.80;20.00;;;11.30;99.90;;;;;;5072037;28;20442;-71
2023/04/23 05:32:27;;;;;;;21.15;19.35;;;11.30;99.90;;;;;;5067572;28;20453;-73
2023/04/23 05:34:54;;;;;;;21.63;19.83;;;11.30;99.90;;;;;;5076015;28;20415;-70
2023/04/23 05:37:21;;;;;;;21.50;19.63;;;11.40;99.90;;;;;;5065549;28;20526;-72
2023/04/23 05:39:48;;;;;;;20.67;19.00;;;11.40;99.90;;;;;;5065510;28;20467;-72
2023/04/23 05:42:16;;;;;;;20.20;18.60;;;11.40;99.90;;;;;;5059236;28;20893;-70
2023/04/23 05:44:43;;;;;;;19.08;17.55;;;11.50;99.90;;;;;;5071610;28;20417;-70
2023/04/23 05:47:11;;;;;;;19.40;17.90;;;11.50;99.90;;;;;;5069961;28;20955;-70
2023/04/23 05:49:37;;;;;;;18.25;16.75;;;11.60;99.90;;;;;;5057463;28;20430;-68
2023/04/23 05:52:04;;;;;;;18.80;17.30;;;11.70;99.90;;;;;;5072075;28;20491;-65
2023/04/23 05:54:31;;;;;;;18.20;16.70;;;11.70;99.90;;;;;;5063552;28;20888;-73
2023/04/23 05:56:58;;;;;;;17.60;16.20;;;11.80;99.90;;;;;;5063099;28;20652;-72
2023/04/23 05:59:26;;;;;;;18.35;16.85;;;11.80;99.90;;;;;;5068822;28;21001;-72
2023/04/23 06:01:53;;;;;;;17.55;16.05;;;11.90;99.90;;;;;;5072366;28;20434;-72
2023/04/23 06:04:20;;;;;;;16.83;15.43;;;12.00;99.90;;;;;;5070152;28;20415;-72
2023/04/23 06:06:47;;;;;;;16.65;15.35;;;12.00;99.90;;;;;;5070676;28;20427;-76
2023/04/23 06:09:14;;;;;;;16.80;15.50;;;12.00;99.90;;;;;;5061856;28;20449;-72
2023/04/23 06:11:40;;;;;;;16.08;14.88;;;12.10;99.90;;;;;;5067806;28;20434;-74
2023/04/23 06:14:07;;;;;;;16.92;15.63;;;12.20;99.90;;;;;;5069023;28;20410;-74
2023/04/23 06:16:35;;;;;;;15.85;14.50;;;12.20;99.90;;;;;;5072160;28;21143;-72
2023/04/23 06:19:04;;;;;;;16.50;15.20;;;12.30;99.90;;;;;;5073360;28;20417;-72
2023/04/23 06:21:31;;;;;;;15.77;14.48;;;12.30;99.90;;;;;;5077006;28;20819;-71
2023/04/23 06:23:58;;;;;;;15.25;14.05;;;12.40;99.90;;;;;;5066549;28;20762;-72
2023/04/23 06:26:24;;;;;;;15.50;14.20;;;12.50;99.90;;;;;;5064820;28;20838;-71
2023/04/23 06:28:51;;;;;;;14.70;13.40;;;12.50;99.90;;;;;;5066299;28;20434;-72
2023/04/23 06:31:18;;;;;;;14.70;13.60;;;12.60;99.90;;;;;;5064443;28;20510;-72
2023/04/23 06:33:46;;;;;;;14.13;13.03;;;12.60;99.90;;;;;;5074814;28;20425;-72
2023/04/23 06:36:13;;;;;;;13.90;12.80;;;12.70;99.90;;;;;;5066893;28;20938;-72
2023/04/23 06:38:40;;;;;;;12.68;11.68;;;12.70;99.90;;;;;;5074059;28;20452;-72
2023/04/23 06:41:07;;;;;;;13.25;12.20;;;12.80;99.90;;;;;;5063936;28;20448;-71
2023/04/23 06:43:33;;;;;;;12.10;11.20;;;12.90;99.90;;;;;;5072614;28;20461;-71
2023/04/23 06:46:00;;;;;;;11.83;10.83;;;12.90;99.90;;;;;;5076140;28;20616;-71
2023/04/23 06:48:27;;;;;;;11.77;10.88;;;13.00;99.90;;;;;;5067541;28;20421;-70
2023/04/23 06:50:55;;;;;;;10.87;10.07;;;13.10;99.90;;;;;;5055625;28;20552;-72
2023/04/23 06:53:22;;;;;;;9.88;8.98;;;13.20;99.90;;;;;;5070232;28;20441;-71
2023/04/23 06:55:50;;;;;;;9.20;8.50;;;13.30;99.90;;;;;;5067437;28;20443;-72
2023/04/23 06:58:16;;;;;;;9.07;8.38;;;13.40;99.90;;;;;;5062715;28;20452;-72
2023/04/23 07:00:43;;;;;;;8.40;7.80;;;13.50;99.50;;;;;;5059825;28;20910;-72
2023/04/23 07:03:11;;;;;;;8.68;7.97;;;13.60;99.20;;;;;;5068413;28;20489;-72
2023/04/23 07:05:37;;;;;;;7.70;7.10;;;13.60;98.70;;;;;;5062905;28;20429;-72
2023/04/23 07:08:05;;;;;;;7.35;6.85;;;13.70;98.60;;;;;;5056510;28;20509;-72
2023/04/23 07:10:32;;;;;;;7.40;6.85;;;13.80;98.00;;;;;;5061994;28;20909;-72
2023/04/23 07:12:59;;;;;;;6.90;6.40;;;13.80;97.80;;;;;;5070234;28;20429;-72
2023/04/23 07:15:26;;;;;;;6.80;6.30;;;14.00;97.80;;;;;;5049246;28;20443;-73
2023/04/23 07:17:52;;;;;;;6.70;6.10;;;14.00;97.10;;;;;;5068323;28;20433;-73
2023/04/23 07:20:19;;;;;;;6.57;6.07;;;14.10;97.30;;;;;;5068965;28;20473;-72
2023/04/23 07:22:46;;;;;;;6.13;5.65;;;14.10;96.70;;;;;;5061646;28;20443;-72
2023/04/23 07:25:14;;;;;;;6.40;5.90;;;14.20;96.60;;;;;;5067293;28;20442;-72
2023/04/23 07:27:41;;;;;;;6.50;5.90;;;14.30;96.20;;;;;;5066372;28;20538;-72
2023/04/23 07:30:09;;;;;;;5.40;5.00;;;14.40;96.30;;;;;;5062168;28;20493;-73
2023/04/23 07:32:35;;;;;;;6.00;5.60;;;14.40;95.00;;;;;;5061373;28;20424;-73
2023/04/23 07:35:03;;;;;;;5.80;5.30;;;14.50;95.10;;;;;;5066784;28;20600;-69
2023/04/23 07:37:30;;;;;;;5.20;4.80;;;14.60;94.90;;;;;;5076052;28;20492;-72
2023/04/23 07:39:57;;;;;;;5.30;4.90;;;14.80;94.50;;;;;;5064402;28;20628;-72
2023/04/23 07:42:25;;;;;;;4.70;4.30;;;15.00;93.30;;;;;;5061639;28;20432;-71
2023/04/23 07:44:52;;;;;;;5.40;4.90;;;15.10;93.20;;;;;;5066520;28;20418;-70
2023/04/23 07:47:18;;;;;;;5.03;4.63;;;15.10;92.40;;;;;;5073872;28;20427;-72
2023/04/23 07:49:45;;;;;;;4.93;4.53;;;15.00;92.00;;;;;;5060539;28;20473;-72
2023/04/23 07:52:12;;;;;;;4.05;3.75;;;14.90;92.20;;;;;;5068039;28;20437;-70
2023/04/23 07:54:39;;;;;;;4.10;3.80;;;14.90;92.80;;;;;;5065825;28;20772;-71
2023/04/23 07:57:05;;;;;;;4.60;3.78;;;15.00;92.50;;;;;;5055990;28;20431;-69
2023/04/23 07:59:33;;;;;;;4.30;3.90;;;15.00;91.90;;;;;;5060607;28;20907;-67
2023/04/23 08:02:00;;;;;;;4.47;4.07;;;15.10;92.00;;;;;;5066088;28;20419;-69
2023/04/23 08:04:27;;;;;;;3.90;3.60;;;15.10;91.10;;;;;;5077881;28;20490;-70
2023/04/23 08:06:53;;;;;;;4.25;3.85;;;15.10;91.40;;;;;;5066970;28;20885;-67
2023/04/23 08:09:20;;;;;;;4.05;3.65;;;15.30;91.10;;;;;;5062678;28;20439;-69
2023/04/23 08:11:47;;;;;;;4.60;3.30;;;15.50;90.30;;;;;;5065884;28;20419;-68
2023/04/23 08:14:14;;;;;;;3.63;3.33;;;15.50;90.00;;;;;;5066593;28;20889;-70
2023/04/23 08:16:42;;;;;;;3.50;3.20;;;15.50;90.00;;;;;;5061354;28;20435;-69
2023/04/23 08:19:08;;;;;;;4.43;3.60;;;15.60;88.80;;;;;;5067660;28;20746;-68
2023/04/23 08:21:35;;;;;;;3.90;3.50;;;15.70;89.30;;;;;;5058810;28;20433;-68
2023/04/23 08:24:03;;;;;;;3.47;3.17;;;15.70;88.70;;;;;;5065184;28;20506;-68
2023/04/23 08:26:30;;;;;;;3.73;3.47;;;15.80;88.80;;;;;;5064750;28;20534;-68
2023/04/23 08:28:59;;;;;;;3.35;3.05;;;15.80;88.20;;;;;;5066470;28;20909;-70
2023/04/23 08:31:26;;;;;;;3.40;2.90;;;15.80;86.90;;;;;;5055580;28;20436;-71
2023/04/23 08:33:54;;;;;;;3.88;2.80;;;15.70;86.20;;;;;;5058509;28;20441;-69
2023/04/23 08:36:21;;;;;;;3.90;3.60;;;15.60;87.30;;;;;;5068513;28;20526;-71
2023/04/23 08:38:48;;;;;;;3.28;2.90;;;15.60;87.50;;;;;;5067815;28;20426;-72
2023/04/23 08:41:17;;;;;;;3.50;2.90;;;15.70;85.80;;;;;;5065750;28;20427;-70
2023/04/23 08:43:50;;;;;;;3.00;2.80;;;15.70;86.60;;;;;;5062159;28;20512;-71
2023/04/23 08:46:18;;;;;;;3.10;2.90;;;15.80;86.50;;;;;;5060194;28;20430;-72
2023/04/23 08:48:46;;;;;;;4.65;3.00;;;15.90;87.00;;;;;;5059933;28;20436;-72
2023/04/23 08:51:18;;;;;;;4.57;2.90;;;16.00;85.40;;;;;;5066367;28;20909;-72
2023/04/23 08:53:51;;;;;;;3.63;2.90;;;16.10;85.40;;;;;;5065356;28;20447;-73
2023/04/23 08:56:19;;;;;;;4.10;2.80;;;16.50;84.30;;;;;;5071470;28;20414;-72
2023/04/23 08:58:48;;;;;;;3.13;2.80;;;16.80;82.30;;;;;;5063883;28;20517;-71
2023/04/23 09:01:15;;;;;;;3.30;3.00;;;17.00;81.20;;;;;;5063666;28;20602;-72
2023/04/23 09:03:43;;;;;;;3.30;3.00;;;17.20;80.10;;;;;;5065641;28;20434;-73
2023/04/23 09:06:10;;;;;;;4.10;3.28;;;17.30;78.50;;;;;;5059352;28;20465;-73
2023/04/23 09:08:38;;;;;;;3.20;2.90;;;17.40;78.20;;;;;;5061823;28;20771;-73
2023/04/23 09:11:05;;;;;;;3.03;2.73;;;17.30;78.90;;;;;;5072017;28;20438;-72
2023/04/23 09:13:34;;;;;;;2.85;2.65;;;17.60;79.10;;;;;;5071292;28;20425;-72
2023/04/23 09:16:01;;;;;;;2.58;2.22;;;17.90;75.00;;;;;;5067546;28;20438;-72
2023/04/23 09:18:28;;;;;;;3.08;2.40;;;18.00;72.10;;;;;;5058130;28;20443;-72
2023/04/23 09:20:55;;;;;;;2.75;2.25;;;18.00;68.40;;;;;;5068709;28;20441;-72
2023/04/23 09:23:23;;;;;;;2.47;2.25;;;18.00;68.90;;;;;;5065026;28;20457;-73
2023/04/23 09:25:51;;;;;;;4.13;2.22;;;18.00;67.50;;;;;;5056395;28;20865;-72
2023/04/23 09:28:18;;;;;;;3.03;2.25;;;18.00;66.40;;;;;;5061982;28;20466;-72
2023/04/23 09:30:45;;;;;;;3.50;2.00;;;17.90;67.90;;;;;;5063888;28;20431;-71
2023/04/23 09:33:12;;;;;;;2.47;1.88;;;18.00;66.90;;;;;;5056151;28;20434;-72
2023/04/23 09:35:41;;;;;;;2.60;1.80;;;18.00;65.60;;;;;;5065383;28;20427;-72
2023/04/23 09:38:09;;;;;;;3.90;2.10;;;18.10;66.20;;;;;;5069127;28;20446;-71
2023/04/23 09:40:37;;;;;;;2.72;2.00;;;18.10;65.40;;;;;;5065885;28;20949;-71
2023/04/23 09:43:06;;;;;;;2.70;2.00;;;18.20;63.00;;;;;;5068778;28;20790;-72
2023/04/23 09:45:34;;;;;;;3.15;1.90;;;18.10;62.60;;;;;;5081938;28;20894;-71
2023/04/23 09:48:00;;;;;;;2.55;1.67;;;18.20;63.10;;;;;;5068535;28;20435;-72
2023/04/23 09:50:35;;;;;;;1.73;1.63;;;18.30;63.50;;;;;;5070179;28;20910;-71
2023/04/23 09:53:03;;;;;;;2.10;1.60;;;18.40;61.00;;;;;;5068111;28;20535;-71
2023/04/23 09:55:34;;;;;;;2.08;1.60;;;18.50;61.20;;;;;;5069290;28;20455;-72
2023/04/23 09:58:01;;;;;;;2.97;1.60;;;18.60;61.30;;;;;;5074040;28;20545;-71
2023/04/23 10:00:33;;;;;;;2.85;1.80;;;18.70;59.60;;;;;;5064025;28;20435;-69
2023/04/23 10:03:00;;;;;;;2.90;1.80;;;18.70;58.00;;;;;;5056737;28;20430;-70
2023/04/23 10:05:28;;;;;;;2.47;1.60;;;18.70;58.70;;;;;;5070895;28;20477;-71
2023/04/23 10:07:57;;;;;;;2.75;1.70;;;18.60;56.70;;;;;;5074103;28;20896;-71
2023/04/23 10:10:24;;;;;;;2.38;1.50;;;18.60;56.00;;;;;;5069131;28;20425;-71
2023/04/23 10:12:52;;;;;;;2.13;1.50;;;18.60;56.30;;;;;;5065711;28;20421;-71
2023/04/23 10:15:19;;;;;;;2.30;1.30;;;18.70;55.00;;;;;;5074898;28;20470;-71
2023/04/23 10:17:48;;;;;;;2.08;1.60;;;18.70;52.90;;;;;;5063954;28;20786;-70
2023/04/23 10:20:16;;;;;;;1.87;1.30;;;18.80;53.10;;;;;;5063686;28;20501;-71
2023/04/23 10:22:46;;;;;;;2.13;1.30;;;18.70;51.80;;;;;;5069096;28;20957;-71
2023/04/23 10:25:13;;;;;;;1.70;1.33;;;18.60;52.10;;;;;;5059770;28;20551;-70
2023/04/23 10:27:42;;;;;;;2.13;1.33;;;18.40;53.60;;;;;;5058903;28;20483;-70
2023/04/23 10:30:12;;;;;;;3.80;1.77;;;18.30;54.50;;;;;;5067909;28;20431;-69
2023/04/23 10:32:39;;;;;;;2.20;1.23;;;18.30;54.10;;;;;;5064349;28;20534;-71
2023/04/23 10:35:09;;;;;;;2.58;1.30;;;18.10;54.50;;;;;;5064854;28;20752;-69
2023/04/23 10:37:36;;;;;;;2.80;1.20;;;18.10;54.70;;;;;;5057188;28;20423;-69
2023/04/23 10:40:10;;;;;;;2.78;1.60;;;18.00;54.00;;;;;;5065377;28;20438;-70
2023/04/23 10:42:37;;;;;;;1.77;1.00;;;18.00;52.60;;;;;;5063798;28;20805;-70
2023/04/23 10:45:12;;;;;;;3.30;1.10;;;17.90;52.90;;;;;;5076639;28;20436;-71
2023/04/23 10:47:39;;;;;;;3.30;1.20;;;17.80;52.80;;;;;;5060883;28;20452;-70
2023/04/23 10:50:24;;;;;;;2.30;1.20;;;17.80;54.30;;;;;;5064654;28;20454;-70
2023/04/23 10:52:53;;;;;;;2.50;1.40;;;18.00;53.10;;;;;;5065953;28;20441;-72
2023/04/23 10:55:21;;;;;;;2.17;1.00;;;18.00;52.10;;;;;;5068962;28;20886;-72
2023/04/23 10:58:01;;;;;;;2.08;1.58;;;18.00;51.90;;;;;;5058050;28;20514;-72
2023/04/23 11:00:30;;;;;;;2.30;1.10;;;18.00;51.90;;;;;;5058227;28;20480;-72
2023/04/23 11:02:57;;;;;;;2.13;1.20;;;18.10;51.80;;;;;;5061758;28;20428;-72
2023/04/23 11:05:27;;;;;;;1.75;0.95;;;18.20;52.60;;;;;;5073302;28;20525;-71
2023/04/23 11:08:04;;;;;;;1.90;1.25;;;18.30;51.00;;;;;;5059206;28;20584;-72
2023/04/23 11:10:32;;;;;;;1.52;1.00;;;18.20;51.30;;;;;;5056694;28;20962;-72
2023/04/23 11:13:18;;;;;;;1.67;1.00;;;18.30;50.90;;;;;;5085135;28;20454;-72
2023/04/23 11:15:46;;;;;;;2.85;1.30;;;18.40;50.50;;;;;;5057768;28;20865;-71
2023/04/23 11:18:13;;;;;;;3.03;1.30;;;18.60;49.70;;;;;;5068560;28;20413;-72
2023/04/23 11:20:41;;;;;;;1.60;1.10;;;18.60;49.60;;;;;;5070728;28;20439;-72
2023/04/23 11:23:28;;;;;;;1.65;0.95;;;18.60;49.50;;;;;;5051284;28;20438;-71
2023/04/23 11:25:56;;;;;;;1.77;0.90;;;18.60;47.40;;;;;;5060251;28;20502;-73
2023/04/23 11:28:23;;;;;;;1.75;0.85;;;18.60;47.50;;;;;;5065101;28;20422;-72
2023/04/23 11:30:53;;;;;;;2.17;0.90;;;18.40;46.60;;;;;;5085352;28;20426;-71
2023/04/23 11:33:20;;;;;;;2.08;0.90;;;18.40;46.30;;;;;;5075950;28;20459;-71
2023/04/23 11:35:48;;;;;;;2.78;1.10;;;18.40;47.40;;;;;;5054620;28;20744;-72
2023/04/23 11:38:15;;;;;;;1.43;0.90;;;18.50;47.60;;;;;;5073326;28;20904;-71
2023/04/23 11:40:42;;;;;;;2.05;1.00;;;18.80;47.30;;;;;;5060247;28;20862;-71
2023/04/23 11:43:09;;;;;;;2.10;0.90;;;18.80;47.70;;;;;;5066138;28;20484;-71
2023/04/23 11:45:36;;;;;;;1.52;1.00;;;18.60;48.90;;;;;;5065232;28;20442;-71
2023/04/23 11:48:04;;;;;;;1.90;1.15;;;18.60;48.50;;;;;;5072082;28;20994;-71
2023/04/23 11:50:34;;;;;;;2.70;1.10;;;18.60;47.40;;;;;;5075544;28;20444;-71
2023/04/23 11:53:06;;;;;;;2.20;1.20;;;18.50;47.50;;;;;;5073677;28;20857;-72
2023/04/23 11:55:33;;;;;;;2.92;1.70;;;18.50;48.20;;;;;;5057622;28;20444;-72
2023/04/23 11:58:00;;;;;;;3.50;1.20;;;18.80;48.00;;;;;;5076642;28;20420;-72
2023/04/23 12:00:27;;;;;;;1.77;1.20;;;19.20;48.20;;;;;;5085699;28;20761;-71
2023/04/23 12:02:55;;;;;;;3.13;1.10;;;19.80;46.50;;;;;;5076995;28;20753;-72
2023/04/23 12:05:23;;;;;;;2.10;1.08;;;20.50;45.00;;;;;;5059998;28;20432;-71
2023/04/23 12:07:51;;;;;;;2.40;1.10;;;21.00;43.10;;;;;;5074998;28;20549;-72
2023/04/23 12:10:21;;;;;;;1.90;1.00;;;21.10;43.20;;;;;;5067326;28;20421;-72
2023/04/23 12:12:52;;;;;;;2.58;1.10;;;21.20;41.00;;;;;;5074100;28;20434;-72
2023/04/23 12:15:19;;;;;;;2.30;1.00;;;21.00;41.30;;;;;;5045080;28;20448;-72
2023/04/23 12:17:50;;;;;;;1.80;0.90;;;20.70;41.00;;;;;;5083837;28;20425;-73
2023/04/23 12:20:19;;;;;;;2.17;1.00;;;20.80;42.10;;;;;;5084431;28;20531;-71
2023/04/23 12:22:45;;;;;;;3.50;1.30;;;21.10;41.20;;;;;;5080063;28;20882;-72
2023/04/23 12:25:12;;;;;;;3.92;1.20;;;21.30;41.30;;;;;;5051287;28;20657;-72
2023/04/23 12:27:42;;;;;;;2.40;1.10;;;21.70;40.70;;;;;;5079534;28;20415;-73
2023/04/23 12:30:10;;;;;;;1.67;0.90;;;21.90;39.10;;;;;;5078844;28;20444;-73
2023/04/23 12:32:37;;;;;;;1.40;0.90;;;21.70;39.20;;;;;;5066486;28;20428;-72
2023/04/23 12:35:05;;;;;;;2.38;1.00;;;21.40;39.30;;;;;;5064214;28;20419;-71
2023/04/23 12:37:36;;;;;;;3.00;0.98;;;21.30;39.70;;;;;;5074922;28;20431;-72